Skip to main content

NOAA/GLERL Met Station at Chicago, IL

Previous 3 Hours (2 minute increments)
See also Previous 5 Days (top of hour)
Jump down to Data
Switch to [English][Metric]
Zoom: Click and drag, Pan: shift-click and drag, Unzoom: double-click, Unzoom All




See also 1-day windrose plot


NOAA/GLERL Met Station at Chicago, IL

Previous 3 Hours (2 minute increments)
See also Previous 5 Days (top of hour only)
Jump up to Graphs
Switch to [English][Metric]
                  Wind  Wind  Wind   Air   Dew   Rel
                   Spd   Gst   Dir  Temp    Pt   Hum
YYYY-MM-DD   CST   kts   kts   deg     F     F     %
2021-02-28 12:50  22.9  24.5   255  48.9  49.0 100.3
2021-02-28 12:48  23.9  27.4   256  48.7  48.8 100.3
2021-02-28 12:46  25.3  28.4   256  49.3  49.4 100.3
2021-02-28 12:44  22.9  26.4   259  50.0  50.1 100.3
2021-02-28 12:42  19.2  24.1   252  50.9  51.0 100.3
2021-02-28 12:40  16.5  19.1   250  51.1  51.2 100.3
2021-02-28 12:38  16.9  23.7   243  51.3  51.3 100.3
2021-02-28 12:36  15.9  22.9   234  50.9  51.0 100.3
2021-02-28 12:34  15.0  17.9   235  51.1  51.2 100.3
2021-02-28 12:32  16.5  19.2   234  51.3  51.3 100.3
2021-02-28 12:30  19.1  21.6   233  51.3  51.3 100.3
2021-02-28 12:28  19.4  26.0   233  50.9  51.0 100.3
2021-02-28 12:26  15.7  19.2   227  51.1  51.2 100.3
2021-02-28 12:24  15.7  19.4   225  50.7  50.8 100.3
2021-02-28 12:22  13.2  17.9   229  50.7  50.8 100.3
2021-02-28 12:20  12.4  14.6   225  50.5  50.6 100.3
2021-02-28 12:18  15.0  15.9   217  50.4  50.4 100.3
2021-02-28 12:16  17.7  20.6   222  50.4  50.4 100.3
2021-02-28 12:14  14.4  17.9   215  50.0  50.1 100.3
2021-02-28 12:12  11.9  14.4   209  49.6  49.7 100.3
2021-02-28 12:10  13.4  15.0   213  50.4  50.4 100.3
2021-02-28 12:08  15.2  18.5   216  50.9  51.0 100.3
2021-02-28 12:06  14.0  16.7   217  50.2  50.3 100.3
2021-02-28 12:04  14.2  15.6   215  50.2  50.3 100.3
2021-02-28 12:02  17.3  19.2   218  50.4  50.4 100.3
2021-02-28 12:00  13.4  14.8   222  50.0  50.1 100.3
2021-02-28 11:58  15.6  18.7   218  50.2  50.3 100.3
2021-02-28 11:56  16.5  19.4   220  49.8  49.9 100.3
2021-02-28 11:54  15.2  18.7   222  50.2  50.3 100.3
2021-02-28 11:52  12.8  17.1   223  49.8  49.9 100.3
2021-02-28 11:50  13.8  16.1   218  49.6  49.7 100.3
2021-02-28 11:48  15.4  17.9   222  49.8  49.9 100.3
2021-02-28 11:46  16.9  20.8   218  49.8  49.9 100.3
2021-02-28 11:44  19.1  22.2   214  50.0  50.1 100.3
2021-02-28 11:42  19.1  22.6   214  49.8  49.9 100.3
2021-02-28 11:40  18.9  22.9   211  49.6  49.7 100.3
2021-02-28 11:38  16.7  17.3   207  49.8  49.9 100.3
2021-02-28 11:36  16.1  16.9   207  49.8  49.9 100.3
2021-02-28 11:34  16.7  19.1   206  50.0  50.1 100.3
2021-02-28 11:32  18.7  21.0   206  49.5  49.5 100.3
2021-02-28 11:30  18.5  20.8   209  49.6  49.7 100.3
2021-02-28 11:28  16.9  20.4   211  49.5  49.5 100.3
2021-02-28 11:26  15.4  16.7   214  49.6  49.7 100.3
2021-02-28 11:24  14.8  16.7   218  49.3  49.4 100.3
2021-02-28 11:22  15.6  17.5   218  49.5  49.5 100.3
2021-02-28 11:20  14.6  16.7   220  49.5  49.5 100.3
2021-02-28 11:18  16.7  18.9   225  49.3  49.4 100.3
2021-02-28 11:16  17.7  20.4   227  49.5  49.5 100.3
2021-02-28 11:14  19.2  21.6   224  49.6  49.7 100.3
2021-02-28 11:12  17.3  20.0   227  49.1  49.2 100.3
2021-02-28 11:10  19.2  22.2   227  49.5  49.5 100.3
2021-02-28 11:08  20.6  25.1   225  49.1  49.2 100.3
2021-02-28 11:06  17.9  21.8   226  48.9  49.0 100.3
2021-02-28 11:04  17.5  19.8   220  49.3  49.4 100.3
2021-02-28 11:02  17.5  20.6   223  48.9  49.0 100.3
2021-02-28 11:00  19.6  23.3   221  48.6  48.6 100.2
2021-02-28 10:58  18.5  21.8   221  48.6  48.6 100.3
2021-02-28 10:56  16.5  17.9   216  48.2  48.3 100.3
2021-02-28 10:54  17.3  20.0   217  48.6  48.6 100.2
2021-02-28 10:52  15.7  17.7   212  48.2  48.3 100.2
2021-02-28 10:50  16.5  20.6   213  48.4  48.4 100.2
2021-02-28 10:48  16.3  21.4   213  48.0  48.1 100.2
2021-02-28 10:46  15.0  17.5   215  47.8  47.9 100.2
2021-02-28 10:44  16.5  21.0   218  48.2  48.3 100.2
2021-02-28 10:42  16.7  19.4   211  47.8  47.9 100.2
2021-02-28 10:40  16.1  18.1   210  47.8  47.9 100.2
2021-02-28 10:38  16.1  17.1   208  47.5  47.5 100.2
2021-02-28 10:36  15.2  17.5   211  47.5  47.5 100.2
2021-02-28 10:34  16.7  18.7   210  47.5  47.5 100.2
2021-02-28 10:32  16.1  18.7   210  47.3  47.4 100.2
2021-02-28 10:30  16.3  19.4   207  47.3  47.4 100.2
2021-02-28 10:28  14.8  16.1   206  46.8  46.8 100.2
2021-02-28 10:26  14.6  17.5   206  46.8  46.8 100.2
2021-02-28 10:24  16.1  17.9   205  47.1  47.2 100.2
2021-02-28 10:22  16.9  18.7   204  47.1  47.2 100.2
2021-02-28 10:20  15.4  18.9   201  46.6  46.6 100.2
2021-02-28 10:18  16.5  19.4   203  46.9  47.0 100.2
2021-02-28 10:16  15.6  16.3   203  46.8  46.8 100.2
2021-02-28 10:14  15.6  16.9   202  46.2  46.3 100.2
2021-02-28 10:12  16.1  17.3   200  46.6  46.6 100.2
2021-02-28 10:10  15.4  16.9   198  46.2  46.3 100.2
2021-02-28 10:08  15.2  16.7   197  46.0  46.1 100.2
2021-02-28 10:06  15.7  16.7   195  45.7  45.7 100.2
2021-02-28 10:04  15.7  17.1   194  45.5  45.6 100.2
2021-02-28 10:02  15.4  16.3   195  44.8  44.8 100.2
2021-02-28 10:00  14.8  15.6   192  44.1  44.1 100.2
2021-02-28 09:58  14.8  15.6   193  44.2  44.3 100.2
2021-02-28 09:56  14.8  15.7   190  43.7  43.8 100.2
2021-02-28 09:54  15.2  15.9   187  43.0  43.0 100.2
2021-02-28 09:52  15.7  17.1   181  42.6  42.7 100.2
2021-02-28 09:50  15.2  15.9   179  42.8  42.9 100.2